EHAM/AMS METAR and TAF weather

Enter ICAO airport designator
Station Type Date Time Source
EHAM METAR 2019/12/14 05:55 UTC NOAA

EHAM 140555Z 26015KT 9999 FEW025 SCT040 07/03 Q0981 BECMG 26020G30KT


Station Type Date Time Source
EHAM Decoded METAR 2019/12/14 05:55 UTC NOAA

Amsterdam Airport Schiphol, Netherlands (EHAM) 52-18N 004-46E -2M
Dec 14, 2019 - 12:55 AM EST / 2019.12.14 0555 UTC
Wind: from the W (260 degrees) at 17 MPH (15 KT):0
Visibility: greater than 7 mile(s):0
Sky conditions: partly cloudy
Temperature: 44 F (7 C)
Dew Point: 37 F (3 C)
Relative Humidity: 75%
Pressure (altimeter): 28.97 in. Hg (0981 hPa)
ob: EHAM 140555Z 26015KT 9999 FEW025 SCT040 07/03 Q0981 BECMG 26020G30KT
cycle: 6

Station Type Date Time Source
EHAM TAF 2019/12/14 06:27 UTC NOAA

TAF TAF EHAM 140521Z 1406/1512 26016KT 9999 SCT020 BKN035
BECMG 1406/1409 26022G33KT PROB40
TEMPO 1406/1409 6000 SHRA SCT025CB PROB40
TEMPO 1414/1417 5000 SHRAGS SCT025CB
BECMG 1418/1421 19012KT
BECMG 1501/1504 24021G31KT
TEMPO 1503/1506 6000 RA SHRA SCT012 BKN018 FEW020CB
BECMG 1509/1512 21015G25KT

Example: see airport list